Time;durP1;ratioP1;P1;durP2;ratioP2;P2;SDS_P1;SDS_P2;PMS_P1;PMS_P2;Temp;Humidity;BMP_temperature;BMP_pressure;BME280_temperature;BME280_humidity;BME280_pressure;Samples;Min_cycle;Max_cycle;Signal;HPM_P1;HPM_P2
2022/06/12 00:01:14;;;;;;;10.38;3.15;;;13.10;99.90;;;;;;5012221;28;20061;-37
2022/06/12 00:03:43;;;;;;;10.27;3.38;;;12.90;99.90;;;;;;5011158;28;20034;-36
2022/06/12 00:06:10;;;;;;;10.07;2.75;;;12.90;99.90;;;;;;5008165;28;20053;-36
2022/06/12 00:08:38;;;;;;;7.85;2.97;;;12.70;99.90;;;;;;4990023;28;20472;-37
2022/06/12 00:11:08;;;;;;;8.20;2.90;;;12.70;99.90;;;;;;5011776;28;20102;-37
2022/06/12 00:13:37;;;;;;;7.22;2.83;;;12.70;99.90;;;;;;5011592;28;20141;-36
2022/06/12 00:16:08;;;;;;;7.35;2.55;;;12.60;99.90;;;;;;5011413;28;20191;-37
2022/06/12 00:18:34;;;;;;;12.63;2.92;;;12.70;99.90;;;;;;5005893;28;20053;-37
2022/06/12 00:21:12;;;;;;;11.98;2.60;;;12.70;99.90;;;;;;5012050;28;20049;-37
2022/06/12 00:23:44;;;;;;;8.07;3.17;;;12.60;99.90;;;;;;5006093;28;20041;-36
2022/06/12 00:26:11;;;;;;;9.02;2.88;;;12.70;99.90;;;;;;4995175;28;20145;-36
2022/06/12 00:28:38;;;;;;;9.70;3.65;;;12.60;99.90;;;;;;5017364;28;20513;-36
2022/06/12 00:31:04;;;;;;;10.75;2.95;;;12.60;99.90;;;;;;5031395;28;20114;-37
2022/06/12 00:33:31;;;;;;;8.50;3.30;;;12.60;99.90;;;;;;5030488;28;20492;-37
2022/06/12 00:35:58;;;;;;;10.10;2.75;;;12.60;99.90;;;;;;5011463;28;20054;-37
2022/06/12 00:38:24;;;;;;;7.40;2.50;;;12.50;99.90;;;;;;4999755;28;20061;-37
2022/06/12 00:40:51;;;;;;;10.27;3.75;;;12.50;99.90;;;;;;5011529;28;20045;-36
2022/06/12 00:43:17;;;;;;;10.40;3.67;;;12.50;99.90;;;;;;5010627;28;20437;-36
2022/06/12 00:45:53;;;;;;;13.68;4.38;;;12.50;99.90;;;;;;5011263;28;20062;-36
2022/06/12 00:48:31;;;;;;;10.40;4.05;;;12.50;99.90;;;;;;5001136;28;20142;-36
2022/06/12 00:51:18;;;;;;;13.90;4.18;;;12.60;99.90;;;;;;5011559;28;20413;-36
2022/06/12 00:53:54;;;;;;;12.43;4.50;;;12.60;99.90;;;;;;5009641;28;20094;-37
2022/06/12 00:56:27;;;;;;;8.13;4.07;;;12.60;99.90;;;;;;5005001;28;20064;-37
2022/06/12 00:59:02;;;;;;;12.88;4.28;;;12.50;99.90;;;;;;5008826;28;20060;-36
2022/06/12 01:01:32;;;;;;;14.30;4.20;;;12.60;99.90;;;;;;5010820;28;20072;-37
2022/06/12 01:06:46;;;;;;;10.05;4.35;;;12.60;99.90;;;;;;5002994;28;20573;-37
2022/06/12 01:09:16;;;;;;;13.00;4.38;;;12.50;99.90;;;;;;5010439;28;20077;-36
2022/06/12 01:11:49;;;;;;;13.23;4.50;;;12.50;99.90;;;;;;5011222;28;20398;-37
2022/06/12 01:14:34;;;;;;;14.10;3.78;;;12.50;99.90;;;;;;5027752;28;20052;-37
2022/06/12 01:17:01;;;;;;;11.18;3.65;;;12.50;99.90;;;;;;5021032;28;20042;-37
2022/06/12 01:19:51;;;;;;;8.80;3.75;;;12.50;99.90;;;;;;5008969;28;20046;-37
2022/06/12 01:22:35;;;;;;;10.48;3.75;;;12.50;99.90;;;;;;5010383;28;20054;-37
2022/06/12 01:25:39;;;;;;;12.52;3.50;;;12.50;99.90;;;;;;5010905;28;20105;-37
2022/06/12 01:28:39;;;;;;;13.23;3.72;;;12.50;99.90;;;;;;4988040;28;20445;-37
2022/06/12 01:31:38;;;;;;;16.75;3.72;;;12.50;99.90;;;;;;5009415;28;20065;-36
2022/06/12 01:34:35;;;;;;;11.88;3.67;;;12.40;99.90;;;;;;5008896;28;20057;-37
2022/06/12 01:37:04;;;;;;;9.15;3.85;;;12.40;99.90;;;;;;4997176;28;20136;-36
2022/06/12 01:39:49;;;;;;;10.93;3.28;;;12.40;99.90;;;;;;5010255;28;20389;-37
2022/06/12 01:42:47;;;;;;;10.23;3.20;;;12.40;99.90;;;;;;5009727;28;20045;-37
2022/06/12 01:45:39;;;;;;;15.88;3.58;;;12.40;99.90;;;;;;5004977;28;20053;-37
2022/06/12 01:48:11;;;;;;;11.02;3.53;;;12.40;99.90;;;;;;4999338;28;20108;-37
2022/06/12 01:50:47;;;;;;;10.43;3.25;;;12.40;99.90;;;;;;5009110;28;20555;-37
2022/06/12 01:53:17;;;;;;;12.63;3.92;;;12.40;99.90;;;;;;5009961;28;20165;-36
2022/06/12 01:55:56;;;;;;;10.57;3.58;;;12.40;99.90;;;;;;5009189;28;20559;-37
2022/06/12 01:58:59;;;;;;;10.70;3.45;;;12.40;99.90;;;;;;5000305;28;20057;-36
2022/06/12 02:01:30;;;;;;;11.25;3.95;;;12.30;99.90;;;;;;5008574;28;20065;-36
2022/06/12 02:04:15;;;;;;;11.87;3.63;;;12.30;99.90;;;;;;5008918;28;20067;-37
2022/06/12 02:06:56;;;;;;;13.20;3.47;;;12.30;99.90;;;;;;5001287;28;20284;-36
2022/06/12 02:09:30;;;;;;;11.15;3.53;;;12.30;99.90;;;;;;5008794;28;20133;-37
2022/06/12 02:15:16;;;;;;;18.40;4.68;;;12.30;99.90;;;;;;4997636;28;20056;-37
2022/06/12 02:17:50;;;;;;;18.00;7.30;;;12.30;99.90;;;;;;4996954;28;20073;-37
2022/06/12 02:20:19;;;;;;;19.10;7.03;;;12.30;99.90;;;;;;5010145;28;20058;-37
2022/06/12 02:22:48;;;;;;;11.02;3.78;;;12.30;99.90;;;;;;4996177;28;20460;-37
2022/06/12 02:25:21;;;;;;;13.23;3.95;;;12.20;99.90;;;;;;5009769;28;20409;-37
2022/06/12 02:27:55;;;;;;;14.20;3.78;;;12.30;99.90;;;;;;4987486;28;20053;-37
2022/06/12 02:30:30;;;;;;;10.05;3.58;;;12.30;99.90;;;;;;5009910;28;20061;-37
2022/06/12 02:33:18;;;;;;;18.27;3.47;;;12.30;99.90;;;;;;5009482;28;20125;-37
2022/06/12 02:36:08;;;;;;;9.90;4.38;;;12.20;99.90;;;;;;4991521;28;20085;-37
2022/06/12 02:38:43;;;;;;;12.60;3.72;;;12.30;99.90;;;;;;4979918;28;20062;-37
2022/06/12 02:41:21;;;;;;;9.32;2.55;;;12.20;99.90;;;;;;5002980;28;20095;-37
2022/06/12 02:43:48;;;;;;;10.38;3.03;;;12.20;99.90;;;;;;5009045;28;20133;-37
2022/06/12 02:46:21;;;;;;;11.82;3.10;;;12.20;99.90;;;;;;5003491;28;20084;-37
2022/06/12 02:48:47;;;;;;;9.20;2.72;;;12.20;99.90;;;;;;5005531;28;20187;-36
2022/06/12 02:51:31;;;;;;;13.38;3.03;;;12.20;99.90;;;;;;5009418;28;20121;-36
2022/06/12 02:54:34;;;;;;;12.73;3.25;;;12.20;99.90;;;;;;5007599;28;20144;-36
2022/06/12 02:57:29;;;;;;;13.52;3.05;;;12.10;99.90;;;;;;5001477;28;20042;-36
2022/06/12 03:00:06;;;;;;;12.13;3.22;;;12.20;99.90;;;;;;5015905;28;20049;-36
2022/06/12 03:02:46;;;;;;;10.98;3.42;;;12.10;99.90;;;;;;5026222;28;20038;-37
2022/06/12 03:05:24;;;;;;;8.32;3.10;;;12.10;99.90;;;;;;5025885;28;20168;-37
2022/06/12 03:08:00;;;;;;;11.10;3.72;;;12.10;99.90;;;;;;5011882;28;20188;-37
2022/06/12 03:10:36;;;;;;;11.10;2.90;;;12.10;99.90;;;;;;5009589;28;20045;-36
2022/06/12 03:13:04;;;;;;;13.30;3.55;;;12.00;99.90;;;;;;5003260;28;20420;-36
2022/06/12 03:15:45;;;;;;;10.52;3.22;;;12.00;99.90;;;;;;5009056;28;20149;-36
2022/06/12 03:18:32;;;;;;;11.45;3.30;;;12.10;99.90;;;;;;4996656;28;20086;-36
2022/06/12 03:21:25;;;;;;;9.77;3.10;;;12.00;99.90;;;;;;5007182;28;20402;-37
2022/06/12 03:24:29;;;;;;;10.00;3.15;;;12.00;99.90;;;;;;5008913;28;20479;-36
2022/06/12 03:27:13;;;;;;;16.20;3.38;;;12.00;99.90;;;;;;5005144;28;20074;-37
2022/06/12 03:30:02;;;;;;;15.27;3.78;;;12.00;99.90;;;;;;5012233;28;20053;-36
2022/06/12 03:33:10;;;;;;;12.05;3.83;;;12.00;99.90;;;;;;4999050;28;20064;-36
2022/06/12 03:35:42;;;;;;;15.05;3.50;;;12.00;99.90;;;;;;5002697;28;20089;-36
2022/06/12 03:38:24;;;;;;;13.18;3.17;;;12.00;99.90;;;;;;4996286;28;20129;-36
2022/06/12 03:40:56;;;;;;;11.82;3.40;;;12.00;99.90;;;;;;4994625;28;20545;-37
2022/06/12 03:43:40;;;;;;;12.38;3.67;;;12.00;99.90;;;;;;4995824;28;20182;-37
2022/06/12 03:46:23;;;;;;;11.23;3.78;;;12.00;99.90;;;;;;4993065;28;20449;-37
2022/06/12 03:48:56;;;;;;;13.20;3.35;;;12.00;99.90;;;;;;4992980;28;20046;-37
2022/06/12 03:51:54;;;;;;;13.43;3.83;;;12.10;99.90;;;;;;5006595;28;20092;-36
2022/06/12 03:54:53;;;;;;;15.50;3.75;;;12.00;99.90;;;;;;4998543;28;20047;-37
2022/06/12 04:00:18;;;;;;;11.35;3.80;;;12.10;99.90;;;;;;4993037;28;20073;-36
2022/06/12 04:02:57;;;;;;;14.48;3.65;;;12.10;99.90;;;;;;5002395;28;20125;-37
2022/06/12 04:05:28;;;;;;;14.15;3.60;;;12.20;99.90;;;;;;4997267;28;20626;-36
2022/06/12 04:07:56;;;;;;;8.45;3.38;;;12.20;99.90;;;;;;4996083;28;20138;-37
2022/06/12 04:10:26;;;;;;;9.70;3.42;;;12.20;99.90;;;;;;5000963;28;20516;-37
2022/06/12 04:12:54;;;;;;;11.75;4.00;;;12.20;99.90;;;;;;4990944;28;20521;-37
2022/06/12 04:15:26;;;;;;;12.88;3.45;;;12.30;99.90;;;;;;5002121;28;20065;-37
2022/06/12 04:17:55;;;;;;;16.60;3.42;;;12.30;99.90;;;;;;4992127;28;20513;-37
2022/06/12 04:20:34;;;;;;;12.70;3.42;;;12.30;99.90;;;;;;4991188;28;20062;-37
2022/06/12 04:23:08;;;;;;;10.50;4.00;;;12.40;99.90;;;;;;4983184;28;20049;-37
2022/06/12 04:25:42;;;;;;;9.98;3.25;;;12.40;99.90;;;;;;5007505;28;20054;-37
2022/06/12 04:28:32;;;;;;;10.38;3.55;;;12.50;99.90;;;;;;4992232;28;20049;-37
2022/06/12 04:31:02;;;;;;;16.90;4.05;;;12.50;99.90;;;;;;4974958;28;20058;-37
2022/06/12 04:33:48;;;;;;;15.30;3.75;;;12.60;99.90;;;;;;4992777;28;20549;-37
2022/06/12 04:36:15;;;;;;;11.10;3.80;;;12.60;99.90;;;;;;4991421;28;20058;-37
2022/06/12 04:38:42;;;;;;;14.38;3.90;;;12.60;99.90;;;;;;4973565;28;20092;-37
2022/06/12 04:41:26;;;;;;;13.82;3.78;;;12.60;99.90;;;;;;4997565;28;20080;-36
2022/06/12 04:43:54;;;;;;;14.20;3.70;;;12.70;99.90;;;;;;4992890;28;20061;-37
2022/06/12 04:46:22;;;;;;;12.43;3.90;;;12.70;99.90;;;;;;4991488;28;20046;-37
2022/06/12 04:48:50;;;;;;;12.77;3.83;;;12.70;99.90;;;;;;4991885;28;20081;-37
2022/06/12 04:51:18;;;;;;;13.93;4.05;;;12.70;99.90;;;;;;5003089;28;20505;-36
2022/06/12 04:53:46;;;;;;;18.38;3.80;;;12.70;99.90;;;;;;4990806;28;20586;-37
2022/06/12 04:56:14;;;;;;;17.67;4.10;;;12.90;99.90;;;;;;4995508;28;20073;-37
2022/06/12 04:58:41;;;;;;;12.82;4.03;;;12.80;99.90;;;;;;5009626;28;20051;-37
2022/06/12 05:01:08;;;;;;;10.48;3.47;;;12.80;99.90;;;;;;5011510;28;20050;-37
2022/06/12 05:03:34;;;;;;;15.40;4.10;;;12.90;99.90;;;;;;5002459;28;20048;-37
2022/06/12 05:06:00;;;;;;;13.05;3.63;;;13.00;99.90;;;;;;4993193;28;20088;-37
2022/06/12 05:08:26;;;;;;;18.92;4.25;;;13.10;99.90;;;;;;4999630;28;20077;-37
2022/06/12 05:10:52;;;;;;;13.43;3.72;;;13.10;99.90;;;;;;4996010;28;20120;-36
2022/06/12 05:13:18;;;;;;;13.10;3.97;;;13.20;99.90;;;;;;4991239;28;20502;-37
2022/06/12 05:15:46;;;;;;;15.43;3.60;;;13.30;99.90;;;;;;5001868;28;20049;-37
2022/06/12 05:18:14;;;;;;;18.80;4.40;;;13.40;99.90;;;;;;5000605;28;20041;-37
2022/06/12 05:20:41;;;;;;;14.10;3.95;;;13.50;99.90;;;;;;4993697;28;20058;-37
2022/06/12 05:23:10;;;;;;;17.50;4.03;;;13.60;99.90;;;;;;4989603;28;20070;-38
2022/06/12 05:25:36;;;;;;;17.10;4.18;;;13.80;99.90;;;;;;4991891;28;20088;-37
2022/06/12 05:28:03;;;;;;;14.45;4.15;;;13.80;99.90;;;;;;5006989;28;20042;-37
2022/06/12 05:30:32;;;;;;;22.42;4.95;;;13.90;99.90;;;;;;4997854;28;20104;-38
2022/06/12 05:32:59;;;;;;;11.63;3.80;;;14.00;99.90;;;;;;5026196;28;20057;-38
2022/06/12 05:35:26;;;;;;;19.40;4.45;;;14.10;99.90;;;;;;5001568;28;20122;-37
2022/06/12 05:37:52;;;;;;;23.00;4.28;;;14.20;99.90;;;;;;5025576;28;20054;-38
2022/06/12 05:40:24;;;;;;;19.05;4.57;;;14.30;99.90;;;;;;5011811;28;20421;-38
2022/06/12 05:42:50;;;;;;;15.95;5.07;;;14.60;99.90;;;;;;5016761;28;20045;-38
2022/06/12 05:45:20;;;;;;;22.48;5.88;;;14.70;99.90;;;;;;5010294;28;20512;-38
2022/06/12 05:47:48;;;;;;;19.38;4.75;;;14.80;99.90;;;;;;5005549;28;20053;-38
2022/06/12 05:50:15;;;;;;;20.25;4.82;;;14.90;99.90;;;;;;5029954;28;20080;-38
2022/06/12 05:52:42;;;;;;;17.33;4.80;;;15.00;99.90;;;;;;5029845;28;20083;-38
2022/06/12 05:55:11;;;;;;;22.50;5.40;;;15.10;99.90;;;;;;5022515;28;20045;-38
2022/06/12 05:57:38;;;;;;;25.42;5.28;;;15.10;99.90;;;;;;5023455;28;20045;-38
2022/06/12 06:00:07;;;;;;;14.15;4.40;;;15.20;99.90;;;;;;5010475;28;20049;-38
2022/06/12 06:02:34;;;;;;;22.08;5.05;;;15.30;99.90;;;;;;5002622;28;20053;-37
2022/06/12 06:05:01;;;;;;;23.23;4.72;;;15.30;99.90;;;;;;4998084;28;20054;-38
2022/06/12 06:07:27;;;;;;;22.50;5.57;;;15.40;99.90;;;;;;4992636;28;20050;-38
2022/06/12 06:09:53;;;;;;;19.67;4.78;;;15.50;99.90;;;;;;5005309;28;20042;-37
2022/06/12 06:12:18;;;;;;;19.80;5.47;;;15.50;99.90;;;;;;5009744;28;20065;-38
2022/06/12 06:14:44;;;;;;;18.00;5.10;;;15.60;99.90;;;;;;5014620;28;20049;-38
2022/06/12 06:17:10;;;;;;;19.50;5.00;;;15.60;99.90;;;;;;5015799;28;20049;-38
2022/06/12 06:19:36;;;;;;;17.75;4.85;;;15.80;99.90;;;;;;5010302;28;20138;-37
2022/06/12 06:22:02;;;;;;;21.42;5.43;;;15.90;99.90;;;;;;5023748;28;20467;-39
2022/06/12 06:24:28;;;;;;;25.13;6.28;;;15.90;99.90;;;;;;5029586;28;20076;-38
2022/06/12 06:26:53;;;;;;;30.45;6.25;;;15.90;99.90;;;;;;5018348;28;20448;-38
2022/06/12 06:29:22;;;;;;;20.30;5.57;;;16.00;99.90;;;;;;5000770;28;20063;-38
2022/06/12 06:31:48;;;;;;;25.02;5.72;;;16.00;99.90;;;;;;5008528;28;20049;-38
2022/06/12 06:34:14;;;;;;;21.80;5.88;;;16.10;99.90;;;;;;5003985;28;20104;-38
2022/06/12 06:36:41;;;;;;;20.30;5.85;;;16.10;99.90;;;;;;5002484;28;20050;-38
2022/06/12 06:39:07;;;;;;;24.75;6.30;;;16.30;99.90;;;;;;4998617;28;20061;-38
2022/06/12 06:41:33;;;;;;;26.60;5.85;;;16.30;99.90;;;;;;5005944;28;20489;-38
2022/06/12 06:46:45;;;;;;;25.60;5.80;;;16.50;99.90;;;;;;4990471;28;20057;-38
2022/06/12 06:49:11;;;;;;;30.48;6.20;;;16.60;99.90;;;;;;4990531;28;20042;-37
2022/06/12 06:51:37;;;;;;;25.05;5.57;;;16.70;99.90;;;;;;4990194;28;20042;-38
2022/06/12 06:54:04;;;;;;;25.15;5.20;;;16.80;99.90;;;;;;4990238;28;20400;-39
2022/06/12 06:56:30;;;;;;;23.35;6.55;;;16.90;99.90;;;;;;4989829;28;20042;-37
2022/06/12 06:58:56;;;;;;;23.17;5.20;;;16.90;99.90;;;;;;5002002;28;20078;-39
2022/06/12 07:01:23;;;;;;;18.75;4.85;;;17.00;99.90;;;;;;5013512;28;20046;-38
2022/06/12 07:03:52;;;;;;;20.85;4.85;;;17.10;99.90;;;;;;5005006;28;20353;-38
2022/06/12 07:06:20;;;;;;;24.38;5.50;;;17.10;99.90;;;;;;5021027;28;20089;-39
2022/06/12 07:09:07;;;;;;;24.13;5.38;;;17.20;99.90;;;;;;5015393;28;20088;-38
2022/06/12 07:11:32;;;;;;;21.50;4.22;;;17.30;99.90;;;;;;5014078;28;20405;-39
2022/06/12 07:14:21;;;;;;;;;;;;;;;;;;;;;
2022/06/12 07:17:08;;;;;;;19.55;4.57;;;17.50;99.90;;;;;;5014090;28;20048;-38
2022/06/12 07:19:44;;;;;;;16.73;4.30;;;17.50;99.90;;;;;;5003359;28;20054;-39
2022/06/12 07:22:14;;;;;;;18.02;4.18;;;17.60;99.90;;;;;;5009693;28;20042;-39
2022/06/12 07:24:43;;;;;;;19.98;3.80;;;17.70;99.90;;;;;;5018751;28;20460;-38
2022/06/12 07:27:09;;;;;;;15.73;3.63;;;17.70;99.90;;;;;;5012162;28;20073;-39
2022/06/12 07:30:10;;;;;;;;;;;17.70;99.90;;;;;;5012554;28;20057;-39
2022/06/12 07:32:41;;;;;;;16.95;3.03;;;17.80;99.90;;;;;;5014153;28;20300;-39
2022/06/12 07:35:07;;;;;;;9.77;3.17;;;17.90;99.90;;;;;;5027554;28;20057;-39
2022/06/12 07:37:46;;;;;;;16.17;3.88;;;17.90;99.90;;;;;;5034603;28;20057;-39
2022/06/12 07:40:45;;;;;;;12.93;3.25;;;18.00;99.90;;;;;;5016394;28;20433;-39
2022/06/12 07:43:35;;;;;;;14.73;3.50;;;18.00;99.90;;;;;;5012884;28;20048;-39
2022/06/12 07:46:16;;;;;;;13.73;3.38;;;18.00;99.90;;;;;;5006364;28;20078;-39
2022/06/12 07:48:48;;;;;;;15.27;4.05;;;18.00;99.90;;;;;;5007818;28;20074;-44
2022/06/12 07:51:19;;;;;;;19.48;3.78;;;18.10;99.90;;;;;;4992849;28;20050;-38
2022/06/12 07:53:55;;;;;;;13.07;3.28;;;18.10;99.90;;;;;;5036399;28;20056;-39
2022/06/12 07:56:23;;;;;;;14.88;3.13;;;18.20;99.90;;;;;;5017680;28;20540;-39
2022/06/12 07:58:53;;;;;;;15.85;4.00;;;18.30;99.90;;;;;;5040361;28;20046;-39
2022/06/12 08:01:27;;;;;;;21.50;3.90;;;18.30;99.90;;;;;;4996099;28;20049;-38
2022/06/12 08:03:53;;;;;;;13.18;3.50;;;18.40;99.90;;;;;;5023975;28;20041;-39
2022/06/12 08:06:21;;;;;;;12.85;3.33;;;18.40;99.90;;;;;;5008728;28;20034;-39
2022/06/12 08:09:13;;;;;;;14.35;3.55;;;18.40;99.90;;;;;;5024359;28;20115;-39
2022/06/12 08:12:12;;;;;;;15.00;3.80;;;18.50;99.90;;;;;;5053652;23;20054;-39
2022/06/12 08:15:07;;;;;;;14.98;3.30;;;18.60;99.90;;;;;;5005636;28;20517;-38
2022/06/12 08:17:33;;;;;;;12.48;3.08;;;18.70;99.90;;;;;;5011912;28;20116;-39
2022/06/12 08:22:43;;;;;;;12.35;2.58;;;18.80;99.90;;;;;;4993546;28;20054;-39
2022/06/12 08:25:09;;;;;;;12.77;2.95;;;18.80;99.90;;;;;;5010942;28;20133;-40
2022/06/12 08:27:36;;;;;;;11.98;2.78;;;18.80;99.90;;;;;;5020403;28;20042;-39
2022/06/12 08:30:07;;;;;;;9.70;2.63;;;18.70;99.90;;;;;;5011465;28;20046;-38
2022/06/12 08:32:33;;;;;;;12.55;2.33;;;18.70;99.90;;;;;;5009189;28;20066;-39
2022/06/12 08:35:04;;;;;;;9.30;2.50;;;18.70;99.90;;;;;;5011275;28;20076;-38
2022/06/12 08:37:39;;;;;;;;;;;18.80;99.90;;;;;;5019906;28;20025;-39
2022/06/12 08:40:21;;;;;;;9.57;2.30;;;18.80;99.90;;;;;;5031149;28;19932;-39
2022/06/12 08:43:17;;;;;;;12.35;2.65;;;18.80;99.90;;;;;;4986627;28;20054;-40
2022/06/12 08:46:09;;;;;;;13.40;2.88;;;18.90;99.90;;;;;;5030429;28;20038;-39
2022/06/12 08:49:14;;;;;;;12.95;2.75;;;18.90;99.90;;;;;;5027688;23;20046;-39
2022/06/12 08:52:22;;;;;;;;;;;19.00;99.90;;;;;;5045122;23;20068;-39
2022/06/12 08:55:14;;;;;;;11.43;2.50;;;19.00;99.90;;;;;;5052210;28;20367;-39
2022/06/12 08:58:26;;;;;;;10.98;2.50;;;19.10;99.90;;;;;;5062650;28;20056;-39
2022/06/12 09:00:54;;;;;;;12.40;3.03;;;19.10;99.90;;;;;;5063039;28;20072;-39
2022/06/12 09:03:30;;;;;;;7.97;2.30;;;19.10;99.90;;;;;;5052881;28;20041;-39
2022/06/12 09:06:42;;;;;;;10.57;2.65;;;19.10;99.90;;;;;;5014226;28;20128;-36
2022/06/12 09:09:14;;;;;;;9.30;2.28;;;19.10;99.90;;;;;;5049337;28;20389;-37
2022/06/12 09:11:49;;;;;;;10.63;2.70;;;19.10;99.90;;;;;;5045029;28;20041;-38
2022/06/12 09:14:20;;;;;;;10.63;2.58;;;19.20;99.90;;;;;;5052446;28;20056;-39
2022/06/12 09:17:06;;;;;;;7.72;2.63;;;19.20;99.90;;;;;;5042653;28;20508;-39
2022/06/12 09:19:47;;;;;;;10.32;2.75;;;19.30;99.90;;;;;;5040706;28;20041;-40
2022/06/12 09:22:32;;;;;;;12.88;2.70;;;19.40;99.90;;;;;;5041619;28;20041;-40
2022/06/12 09:25:26;;;;;;;8.77;2.42;;;19.40;99.90;;;;;;5038482;28;20052;-40
2022/06/12 09:28:09;;;;;;;7.38;2.17;;;19.40;99.90;;;;;;5038016;28;20132;-41
2022/06/12 09:30:49;;;;;;;8.40;2.38;;;19.30;99.90;;;;;;5042681;28;20041;-39
2022/06/12 09:33:49;;;;;;;8.55;2.13;;;19.20;99.90;;;;;;5039235;28;20052;-39
2022/06/12 09:36:33;;;;;;;11.70;2.55;;;19.30;99.90;;;;;;4954541;28;20081;-39
2022/06/12 09:39:17;;;;;;;9.57;2.50;;;19.40;99.90;;;;;;5019287;28;20049;-40
2022/06/12 09:42:02;;;;;;;7.25;2.10;;;19.50;99.90;;;;;;5036779;28;20492;-38
2022/06/12 09:44:33;;;;;;;9.73;2.40;;;19.50;99.90;;;;;;5018161;28;20042;-38
2022/06/12 09:47:57;;;;;;;10.63;2.53;;;19.40;99.90;;;;;;5022560;28;20053;-41
2022/06/12 09:50:54;;;;;;;5.55;1.77;;;19.40;99.90;;;;;;4982065;28;20071;-40
2022/06/12 09:53:31;;;;;;;6.95;1.65;;;19.50;99.90;;;;;;5037465;28;20102;-39
2022/06/12 09:56:07;;;;;;;5.38;1.58;;;19.60;99.90;;;;;;5039207;28;20049;-40
2022/06/12 09:58:52;;;;;;;6.80;1.52;;;19.70;99.90;;;;;;5038948;28;20049;-40
2022/06/12 10:01:35;;;;;;;5.60;1.67;;;19.70;99.90;;;;;;5038972;28;20484;-39
2022/06/12 10:04:24;;;;;;;5.78;1.73;;;19.60;99.90;;;;;;5028859;28;20045;-39
2022/06/12 10:07:44;;;;;;;4.65;1.48;;;19.50;99.90;;;;;;5040491;28;20060;-40
2022/06/12 10:10:22;;;;;;;5.70;1.45;;;19.50;99.90;;;;;;4945044;29;20063;-39
2022/06/12 10:12:55;;;;;;;5.88;1.55;;;19.40;99.90;;;;;;5044399;28;20527;-40
2022/06/12 10:15:32;;;;;;;6.32;1.70;;;19.50;99.90;;;;;;5044469;28;20038;-40
2022/06/12 10:18:08;;;;;;;6.22;1.67;;;19.50;99.90;;;;;;5020681;28;20042;-39
2022/06/12 10:21:00;;;;;;;7.47;1.83;;;19.50;99.90;;;;;;5011389;28;20088;-38
2022/06/12 10:23:26;;;;;;;5.35;1.27;;;19.40;99.90;;;;;;5030290;28;20034;-38
2022/06/12 10:25:58;;;;;;;6.57;1.83;;;19.40;99.90;;;;;;5056160;28;20763;-38
2022/06/12 10:29:10;;;;;;;8.73;1.58;;;19.50;99.90;;;;;;5063056;28;20135;-40
2022/06/12 10:31:47;;;;;;;5.72;1.42;;;19.50;99.90;;;;;;5026104;28;20150;-39
2022/06/12 10:34:23;;;;;;;5.20;1.77;;;19.60;99.90;;;;;;5030211;28;20829;-40
2022/06/12 10:36:50;;;;;;;4.18;1.30;;;19.50;99.90;;;;;;5042270;28;20511;-38
2022/06/12 10:39:20;;;;;;;3.80;1.30;;;19.60;99.90;;;;;;5029011;28;20424;-39
2022/06/12 10:42:05;;;;;;;3.55;1.05;;;19.50;99.90;;;;;;5005392;28;20069;-39
2022/06/12 10:44:54;;;;;;;6.55;1.83;;;19.50;99.90;;;;;;5037064;28;20045;-39
2022/06/12 10:47:44;;;;;;;7.78;1.80;;;19.50;99.90;;;;;;5029272;28;20042;-39
2022/06/12 10:50:52;;;;;;;6.40;1.55;;;19.50;99.90;;;;;;5043089;28;20045;-39
2022/06/12 10:53:21;;;;;;;5.07;1.25;;;19.50;99.90;;;;;;5031296;28;20098;-39
2022/06/12 10:56:17;;;;;;;5.35;1.35;;;19.50;99.90;;;;;;5027522;28;20614;-41
2022/06/12 10:59:18;;;;;;;5.80;1.48;;;19.60;99.90;;;;;;5053106;28;20071;-39
2022/06/12 11:02:06;;;;;;;7.28;1.45;;;19.70;99.90;;;;;;5046455;23;20057;-40
2022/06/12 11:05:08;;;;;;;6.85;1.70;;;19.90;99.90;;;;;;5018697;28;20065;-40
2022/06/12 11:08:13;;;;;;;5.88;1.42;;;19.90;99.90;;;;;;5017020;28;20046;-39
2022/06/12 11:11:06;;;;;;;7.03;1.80;;;19.90;99.90;;;;;;5017625;28;20501;-38
2022/06/12 11:14:11;;;;;;;6.28;1.80;;;19.90;99.90;;;;;;4986789;28;20619;-39
2022/06/12 11:17:21;;;;;;;6.35;1.50;;;20.00;99.90;;;;;;4997723;28;20407;-38
2022/06/12 11:20:33;;;;;;;6.78;1.60;;;20.00;99.90;;;;;;5000591;28;20061;-39
2022/06/12 11:23:26;;;;;;;10.55;1.70;;;19.90;99.90;;;;;;4999698;28;20042;-39
2022/06/12 11:26:24;;;;;;;6.75;1.63;;;19.70;99.90;;;;;;4999526;28;20078;-39
2022/06/12 11:29:12;;;;;;;8.57;1.77;;;19.60;99.90;;;;;;4996990;28;20054;-39
2022/06/12 11:32:12;;;;;;;8.32;1.80;;;19.50;99.90;;;;;;4968006;28;20077;-41
2022/06/12 11:35:02;;;;;;;6.05;1.60;;;19.50;99.90;;;;;;4984075;28;20134;-39
2022/06/12 11:37:54;;;;;;;8.07;1.52;;;19.70;99.90;;;;;;5008420;28;20530;-38
2022/06/12 11:41:04;;;;;;;5.40;1.58;;;19.80;99.90;;;;;;5030173;28;20049;-37
2022/06/12 11:43:44;;;;;;;6.85;1.92;;;19.60;99.90;;;;;;5001235;28;20050;-39
2022/06/12 11:46:34;;;;;;;7.68;1.70;;;19.50;99.90;;;;;;5036221;28;20051;-38
2022/06/12 11:49:24;;;;;;;7.85;2.08;;;19.60;99.90;;;;;;5022648;28;20445;-39
2022/06/12 11:52:34;;;;;;;7.72;1.80;;;19.70;99.90;;;;;;5034658;28;20058;-39
2022/06/12 11:55:18;;;;;;;9.40;1.98;;;19.70;99.90;;;;;;5004957;28;20133;-38
2022/06/12 11:58:03;;;;;;;5.20;1.50;;;19.50;99.90;;;;;;5035649;28;20406;-40
2022/06/12 12:01:37;;;;;;;6.18;1.90;;;19.60;99.90;;;;;;5027914;28;20052;-37
2022/06/12 12:05:13;;;;;;;6.07;1.80;;;19.70;99.90;;;;;;4964374;28;20059;-38
2022/06/12 12:08:12;;;;;;;5.07;1.35;;;19.80;99.90;;;;;;4972900;28;20090;-40
2022/06/12 12:11:02;;;;;;;6.95;1.73;;;19.80;99.90;;;;;;4964224;28;20574;-38
2022/06/12 12:13:41;;;;;;;6.05;1.58;;;19.90;99.90;;;;;;4939266;28;20061;-39
2022/06/12 12:16:42;;;;;;;6.55;1.42;;;19.90;99.90;;;;;;4985942;28;20497;-39
2022/06/12 12:19:19;;;;;;;5.88;1.52;;;20.10;99.90;;;;;;4978464;28;20392;-39
2022/06/12 12:22:22;;;;;;;7.07;1.70;;;20.10;99.90;;;;;;4993932;28;20081;-38
2022/06/12 12:25:13;;;;;;;5.20;1.65;;;20.30;99.90;;;;;;4987282;28;20137;-39
2022/06/12 12:27:52;;;;;;;5.60;1.70;;;20.40;99.90;;;;;;4986925;28;20402;-39
2022/06/12 12:30:27;;;;;;;5.75;1.77;;;20.40;99.90;;;;;;4983504;28;20061;-39
2022/06/12 12:32:56;;;;;;;6.82;1.38;;;20.30;99.90;;;;;;4989645;28;20121;-41
2022/06/12 12:41:37;;;;;;;5.00;1.17;;;20.40;99.90;;;;;;4988922;28;20053;-37
2022/06/12 12:44:04;;;;;;;4.85;1.25;;;20.40;99.90;;;;;;4984472;28;20110;-37
2022/06/12 12:46:49;;;;;;;6.20;1.95;;;20.30;99.90;;;;;;5005677;23;20054;-39
2022/06/12 12:49:36;;;;;;;7.85;1.80;;;20.50;99.90;;;;;;4995266;28;20289;-38
2022/06/12 12:52:21;;;;;;;6.80;1.65;;;20.40;99.90;;;;;;5011794;28;20051;-38
2022/06/12 12:54:58;;;;;;;7.40;1.90;;;20.30;99.90;;;;;;4987795;28;20045;-38
2022/06/12 12:57:35;;;;;;;5.35;1.30;;;20.50;99.90;;;;;;4986785;28;20051;-39
2022/06/12 13:00:33;;;;;;;6.05;1.70;;;20.50;99.90;;;;;;4994043;28;20768;-38
2022/06/12 13:03:27;;;;;;;9.57;2.25;;;20.60;99.90;;;;;;4996627;28;20041;-38
2022/06/12 13:06:27;;;;;;;7.32;2.28;;;20.70;99.90;;;;;;4993949;28;20087;-38
2022/06/12 13:09:03;;;;;;;6.30;1.60;;;20.70;99.90;;;;;;4990270;28;20073;-37
2022/06/12 13:12:05;;;;;;;6.97;1.90;;;20.80;99.90;;;;;;4983682;28;20494;-39
2022/06/12 13:14:37;;;;;;;5.32;1.60;;;21.00;99.90;;;;;;4980262;28;20540;-38
2022/06/12 13:17:35;;;;;;;6.45;1.70;;;21.10;99.90;;;;;;4977971;28;20086;-38
2022/06/12 13:20:25;;;;;;;8.18;1.80;;;21.20;99.90;;;;;;4980400;28;20043;-39
2022/06/12 13:23:21;;;;;;;11.45;2.03;;;21.30;99.90;;;;;;4974970;28;20050;-38
2022/06/12 13:25:53;;;;;;;6.60;1.85;;;21.20;99.90;;;;;;4979157;28;20054;-38
2022/06/12 13:28:39;;;;;;;6.65;2.08;;;21.20;99.90;;;;;;4999570;28;20042;-38
2022/06/12 13:31:23;;;;;;;8.70;2.05;;;21.40;99.90;;;;;;4996103;28;20047;-37
2022/06/12 13:33:55;;;;;;;6.82;2.10;;;21.40;99.90;;;;;;4995036;28;20046;-38
2022/06/12 13:36:38;;;;;;;9.63;2.28;;;21.30;99.90;;;;;;4977152;28;20347;-38
2022/06/12 13:39:18;;;;;;;7.93;2.60;;;21.20;99.90;;;;;;4972200;28;20129;-38
2022/06/12 13:41:48;;;;;;;12.67;2.33;;;21.10;99.90;;;;;;4982956;28;20046;-39
2022/06/12 13:44:21;;;;;;;9.68;2.40;;;21.10;99.90;;;;;;4991795;28;20327;-39
2022/06/12 13:46:47;;;;;;;5.45;1.80;;;20.80;99.90;;;;;;4972614;28;20061;-38
2022/06/12 13:49:30;;;;;;;7.82;2.33;;;20.70;99.90;;;;;;5000757;28;20070;-40
2022/06/12 13:52:05;;;;;;;8.18;2.10;;;20.80;99.90;;;;;;4996788;28;20054;-39
2022/06/12 13:54:40;;;;;;;8.52;2.40;;;21.20;99.90;;;;;;4990352;28;20050;-37
2022/06/12 13:57:14;;;;;;;8.23;2.03;;;21.20;99.90;;;;;;4981166;28;20126;-38
2022/06/12 13:59:44;;;;;;;9.35;2.50;;;20.90;99.90;;;;;;4973110;28;20050;-39
2022/06/12 14:02:23;;;;;;;8.05;2.20;;;20.80;99.90;;;;;;4990128;28;20093;-39
2022/06/12 14:05:22;;;;;;;7.25;2.15;;;20.70;99.90;;;;;;5002922;28;20089;-37